Time;durP1;ratioP1;P1;durP2;ratioP2;P2;SDS_P1;SDS_P2;PMS_P1;PMS_P2;Temp;Humidity;BMP_temperature;BMP_pressure;BME280_temperature;BME280_humidity;BME280_pressure;Samples;Min_cycle;Max_cycle;Signal;HPM_P1;HPM_P2
2022/07/13 00:03:28;;;;;;;3.35;2.00;;;;;;;;;;10629111;27;20131;-76
2022/07/13 00:08:33;;;;;;;5.33;2.10;;;;;;;;;;10654425;27;20038;-77
2022/07/13 00:13:36;;;;;;;5.90;2.30;;;;;;;;;;10628359;27;20035;-77
2022/07/13 00:18:39;;;;;;;3.38;1.98;;;;;;;;;;10626511;27;20038;-76
2022/07/13 00:23:44;;;;;;;5.40;2.20;;;;;;;;;;10642004;27;20141;-75
2022/07/13 00:28:46;;;;;;;2.38;1.38;;;;;;;;;;10648886;27;20030;-78
2022/07/13 00:33:49;;;;;;;3.92;2.00;;;;;;;;;;10608559;27;20130;-76
2022/07/13 00:38:53;;;;;;;2.95;1.75;;;;;;;;;;10645922;27;20038;-77
2022/07/13 00:44:06;;;;;;;4.60;2.13;;;;;;;;;;10628447;27;20085;-77
2022/07/13 00:49:10;;;;;;;4.85;2.28;;;;;;;;;;10649435;27;20518;-76
2022/07/13 00:54:28;;;;;;;3.70;2.35;;;;;;;;;;10627659;27;20129;-76
2022/07/13 00:59:31;;;;;;;3.75;1.92;;;;;;;;;;10643214;27;20067;-75
2022/07/13 01:04:34;;;;;;;2.15;1.50;;;;;;;;;;10637954;27;20502;-76
2022/07/13 01:09:38;;;;;;;2.72;1.63;;;;;;;;;;10641731;27;20092;-77
2022/07/13 01:14:41;;;;;;;2.90;1.70;;;;;;;;;;10625553;27;20035;-76
2022/07/13 01:19:51;;;;;;;2.58;1.52;;;;;;;;;;10622767;27;20087;-77
2022/07/13 01:24:54;;;;;;;;;;;;;;;;;;10644969;27;20045;-75
2022/07/13 01:30:04;;;;;;;1.90;1.60;;;;;;;;;;10644066;27;19923;-77
2022/07/13 01:35:08;;;;;;;4.47;1.90;;;;;;;;;;10643282;27;20439;-76
2022/07/13 01:40:31;;;;;;;3.00;1.80;;;;;;;;;;10648083;27;20042;-77
2022/07/13 01:45:35;;;;;;;;;;;;;;;;;;10644048;27;20030;-76
2022/07/13 01:50:39;;;;;;;2.63;1.40;;;;;;;;;;10649713;27;20137;-76
2022/07/13 01:55:43;;;;;;;3.38;1.75;;;;;;;;;;10639187;27;20031;-75
2022/07/13 02:00:46;;;;;;;2.92;1.60;;;;;;;;;;10639504;27;20521;-78
2022/07/13 02:05:50;;;;;;;3.53;1.83;;;;;;;;;;10623797;27;20483;-78
2022/07/13 02:10:53;;;;;;;2.97;1.80;;;;;;;;;;10641810;27;20121;-76
2022/07/13 02:15:56;;;;;;;3.42;1.70;;;;;;;;;;10640004;27;20047;-77
2022/07/13 02:21:00;;;;;;;3.63;1.75;;;;;;;;;;10642904;27;20031;-75
2022/07/13 02:26:03;;;;;;;2.45;1.25;;;;;;;;;;10642395;27;20034;-75
2022/07/13 02:31:06;;;;;;;2.33;1.60;;;;;;;;;;10645157;27;20075;-77
2022/07/13 02:36:11;;;;;;;4.32;1.65;;;;;;;;;;10640712;27;20307;-76
2022/07/13 02:41:14;;;;;;;2.45;1.20;;;;;;;;;;10641347;27;20046;-77
2022/07/13 02:46:17;;;;;;;2.00;1.05;;;;;;;;;;10625485;27;20076;-77
2022/07/13 02:51:22;;;;;;;1.52;1.23;;;;;;;;;;10643716;27;20750;-76
2022/07/13 02:56:24;;;;;;;2.50;1.50;;;;;;;;;;10627830;27;20039;-76
2022/07/13 03:01:28;;;;;;;4.15;1.70;;;;;;;;;;10622893;27;20032;-77
2022/07/13 03:06:33;;;;;;;3.38;1.63;;;;;;;;;;10645786;27;20440;-77
2022/07/13 03:11:35;;;;;;;2.38;1.55;;;;;;;;;;10643648;27;20102;-76
2022/07/13 03:16:38;;;;;;;3.47;1.60;;;;;;;;;;10622193;27;20088;-77
2022/07/13 03:21:42;;;;;;;1.75;1.40;;;;;;;;;;10618887;27;20090;-79
2022/07/13 03:26:45;;;;;;;2.45;1.25;;;;;;;;;;10635328;27;20039;-78
2022/07/13 03:31:47;;;;;;;4.18;1.55;;;;;;;;;;10651095;27;20206;-77
2022/07/13 03:36:52;;;;;;;2.97;1.80;;;;;;;;;;10649910;27;20122;-76
2022/07/13 03:41:55;;;;;;;1.83;1.23;;;;;;;;;;10630864;27;20095;-76
2022/07/13 03:46:58;;;;;;;5.17;2.00;;;;;;;;;;10632716;27;20049;-77
2022/07/13 03:52:03;;;;;;;2.30;1.35;;;;;;;;;;10644936;27;20041;-77
2022/07/13 03:57:06;;;;;;;3.03;1.50;;;;;;;;;;10645200;27;20039;-75
2022/07/13 04:02:09;;;;;;;2.28;1.63;;;;;;;;;;10627612;27;20039;-77
2022/07/13 04:07:16;;;;;;;2.53;1.70;;;;;;;;;;10653001;27;20075;-78
2022/07/13 04:12:20;;;;;;;2.03;1.48;;;;;;;;;;10627973;27;20062;-76
2022/07/13 04:17:24;;;;;;;2.58;0.98;;;;;;;;;;10646143;27;20121;-77
2022/07/13 04:22:29;;;;;;;3.20;1.70;;;;;;;;;;10647863;27;20070;-75
2022/07/13 04:27:32;;;;;;;3.70;1.83;;;;;;;;;;10647522;27;20038;-77
2022/07/13 04:32:35;;;;;;;3.75;1.60;;;;;;;;;;10623498;27;20471;-76
2022/07/13 04:37:40;;;;;;;2.58;1.90;;;;;;;;;;10631188;27;20043;-77
2022/07/13 04:42:42;;;;;;;3.17;1.75;;;;;;;;;;10644301;27;20033;-77
2022/07/13 04:47:46;;;;;;;3.15;1.90;;;;;;;;;;10646286;27;20091;-77
2022/07/13 04:52:50;;;;;;;2.57;1.70;;;;;;;;;;10625426;27;20091;-77
2022/07/13 04:57:55;;;;;;;2.47;1.70;;;;;;;;;;10648842;27;20039;-77
2022/07/13 05:02:59;;;;;;;2.60;1.80;;;;;;;;;;10628582;27;20140;-75
2022/07/13 05:08:04;;;;;;;3.53;1.75;;;;;;;;;;10644892;27;20095;-76
2022/07/13 05:13:06;;;;;;;3.30;1.65;;;;;;;;;;10621597;27;20122;-76
2022/07/13 05:18:26;;;;;;;4.05;1.70;;;;;;;;;;10626263;27;20035;-77
2022/07/13 05:23:31;;;;;;;2.80;1.43;;;;;;;;;;10626172;27;20039;-80
2022/07/13 05:28:35;;;;;;;2.85;1.42;;;;;;;;;;10628982;27;20423;-75
2022/07/13 05:33:38;;;;;;;2.42;1.55;;;;;;;;;;10627861;27;20046;-78
2022/07/13 05:38:44;;;;;;;2.80;1.45;;;;;;;;;;10648554;27;20608;-78
2022/07/13 05:43:48;;;;;;;2.88;1.50;;;;;;;;;;10628591;27;20080;-76
2022/07/13 05:48:53;;;;;;;2.80;1.38;;;;;;;;;;10648417;27;20600;-78
2022/07/13 05:53:58;;;;;;;3.13;1.53;;;;;;;;;;10622231;27;20082;-76
2022/07/13 05:59:20;;;;;;;2.15;1.45;;;;;;;;;;10626886;27;20118;-80
2022/07/13 06:04:23;;;;;;;3.50;1.67;;;;;;;;;;10639607;27;20026;-80
2022/07/13 06:09:28;;;;;;;3.33;1.60;;;;;;;;;;10633019;27;20045;-76
2022/07/13 06:14:32;;;;;;;5.18;1.90;;;;;;;;;;10629013;27;20035;-76
2022/07/13 06:19:34;;;;;;;;;;;;;;;;;;10622255;27;20078;-77
2022/07/13 06:24:39;;;;;;;3.63;1.50;;;;;;;;;;10621468;27;19919;-78
2022/07/13 06:29:42;;;;;;;2.25;1.40;;;;;;;;;;10636767;27;20035;-79
2022/07/13 06:34:44;;;;;;;3.07;1.60;;;;;;;;;;10637742;27;20692;-80
2022/07/13 06:39:48;;;;;;;2.67;1.37;;;;;;;;;;10624603;27;20417;-77
2022/07/13 06:44:56;;;;;;;2.85;1.27;;;;;;;;;;10623866;27;20030;-77
2022/07/13 06:49:58;;;;;;;3.30;1.40;;;;;;;;;;10618606;27;20062;-78
2022/07/13 06:55:03;;;;;;;2.07;1.40;;;;;;;;;;10633772;27;20303;-78
2022/07/13 07:00:08;;;;;;;5.97;1.73;;;;;;;;;;10645938;27;20382;-77
2022/07/13 07:05:10;;;;;;;4.47;1.60;;;;;;;;;;10650740;27;20030;-78
2022/07/13 07:10:15;;;;;;;2.65;1.10;;;;;;;;;;10642835;27;20618;-75
2022/07/13 07:15:18;;;;;;;1.70;1.25;;;;;;;;;;10627826;27;20144;-76
2022/07/13 07:20:22;;;;;;;2.92;1.35;;;;;;;;;;10650484;27;20039;-77
2022/07/13 07:25:27;;;;;;;2.42;1.20;;;;;;;;;;10634849;27;20031;-77
2022/07/13 07:30:30;;;;;;;5.13;1.35;;;;;;;;;;10644663;27;20115;-77
2022/07/13 07:35:33;;;;;;;0.90;0.90;;;;;;;;;;10645583;27;20030;-76
2022/07/13 07:40:37;;;;;;;1.80;0.90;;;;;;;;;;10621308;27;20121;-77
2022/07/13 07:45:39;;;;;;;1.48;1.00;;;;;;;;;;10628261;27;20091;-78
2022/07/13 07:50:42;;;;;;;1.83;1.40;;;;;;;;;;10643101;27;20038;-78
2022/07/13 07:55:46;;;;;;;2.55;1.35;;;;;;;;;;10626769;27;20055;-74
2022/07/13 08:00:49;;;;;;;1.40;1.30;;;;;;;;;;10622003;27;20035;-76
2022/07/13 08:05:55;;;;;;;1.30;1.20;;;;;;;;;;10637069;27;20034;-76
2022/07/13 08:10:59;;;;;;;1.67;1.38;;;;;;;;;;10622797;27;20082;-75
2022/07/13 08:16:02;;;;;;;2.47;1.20;;;;;;;;;;10637433;27;20418;-76
2022/07/13 08:21:05;;;;;;;2.65;1.95;;;;;;;;;;10621654;27;20129;-77
2022/07/13 08:26:09;;;;;;;2.60;1.50;;;;;;;;;;10620789;27;20051;-76
2022/07/13 08:31:15;;;;;;;1.98;1.40;;;;;;;;;;10620752;27;21037;-77
2022/07/13 08:41:41;;;;;;;3.63;1.60;;;;;;;;;;10619617;27;20455;-74
2022/07/13 08:46:43;;;;;;;1.80;1.38;;;;;;;;;;10644064;27;20053;-76
2022/07/13 08:51:47;;;;;;;3.70;1.30;;;;;;;;;;10624877;27;20452;-76
2022/07/13 08:56:52;;;;;;;1.88;1.27;;;;;;;;;;10644778;27;20122;-76
2022/07/13 09:01:54;;;;;;;1.92;1.30;;;;;;;;;;10638886;27;20070;-77
2022/07/13 09:06:58;;;;;;;2.65;1.45;;;;;;;;;;10627425;27;20555;-76
2022/07/13 09:12:16;;;;;;;1.63;1.50;;;;;;;;;;10641924;27;20102;-77
2022/07/13 09:17:29;;;;;;;3.53;1.77;;;;;;;;;;10625964;27;20129;-77
2022/07/13 09:22:33;;;;;;;2.45;1.20;;;;;;;;;;10622147;27;20070;-77
2022/07/13 09:27:47;;;;;;;5.47;1.80;;;;;;;;;;10642993;27;20031;-75
2022/07/13 09:32:50;;;;;;;1.23;1.05;;;;;;;;;;10642314;27;20630;-77
2022/07/13 09:37:54;;;;;;;2.15;1.25;;;;;;;;;;10642008;27;20030;-78
2022/07/13 09:48:15;;;;;;;1.67;1.10;;;;;;;;;;10612442;27;20043;-77
2022/07/13 09:53:25;;;;;;;2.80;1.13;;;;;;;;;;10624898;27;20563;-77
2022/07/13 09:58:30;;;;;;;0.80;0.80;;;;;;;;;;10623247;27;20058;-77
2022/07/13 10:03:33;;;;;;;1.15;1.05;;;;;;;;;;10642469;27;20038;-78
2022/07/13 10:08:36;;;;;;;4.68;1.13;;;;;;;;;;10645356;27;20042;-78
2022/07/13 10:13:40;;;;;;;1.65;1.00;;;;;;;;;;10642833;27;20270;-78
2022/07/13 10:18:43;;;;;;;2.85;1.08;;;;;;;;;;10649205;27;20031;-79
2022/07/13 10:23:46;;;;;;;2.58;1.00;;;;;;;;;;10625276;27;20042;-78
2022/07/13 10:29:04;;;;;;;1.25;1.15;;;;;;;;;;10625290;27;20066;-77
2022/07/13 10:34:08;;;;;;;3.35;1.30;;;;;;;;;;10646601;27;20502;-78
2022/07/13 10:39:11;;;;;;;1.60;1.27;;;;;;;;;;10638777;27;20039;-78
2022/07/13 10:49:47;;;;;;;2.08;1.13;;;;;;;;;;10507381;28;20474;-75
2022/07/13 10:55:05;;;;;;;3.05;1.40;;;;;;;;;;10457287;28;20124;-74
2022/07/13 11:00:18;;;;;;;1.40;1.30;;;;;;;;;;10421681;28;20425;-74
2022/07/13 11:05:25;;;;;;;2.47;1.10;;;;;;;;;;10441792;28;20033;-74
2022/07/13 11:10:30;;;;;;;2.33;1.50;;;;;;;;;;10460536;28;20044;-74
2022/07/13 11:15:45;;;;;;;2.00;1.80;;;;;;;;;;10460697;28;20052;-76
2022/07/13 11:20:56;;;;;;;1.85;1.65;;;;;;;;;;10423331;28;20045;-75
2022/07/13 11:26:00;;;;;;;2.33;1.83;;;;;;;;;;10414312;28;20037;-74
2022/07/13 11:31:04;;;;;;;2.58;1.55;;;;;;;;;;10418265;28;20081;-74
2022/07/13 11:36:09;;;;;;;3.08;1.30;;;;;;;;;;10451671;28;21381;-73
2022/07/13 11:41:24;;;;;;;2.42;1.20;;;;;;;;;;10420564;28;20623;-72
2022/07/13 11:46:28;;;;;;;1.70;1.33;;;;;;;;;;10417136;28;20607;-75
2022/07/13 11:51:33;;;;;;;2.17;1.40;;;;;;;;;;10417630;28;20049;-75
2022/07/13 11:56:45;;;;;;;3.85;1.50;;;;;;;;;;10411649;28;20124;-75
2022/07/13 12:01:51;;;;;;;2.97;1.50;;;;;;;;;;10392913;28;20049;-75
2022/07/13 12:12:23;;;;;;;4.63;1.45;;;;;;;;;;10630703;27;20407;-74
2022/07/13 12:17:27;;;;;;;2.13;1.40;;;;;;;;;;10588460;27;20043;-74
2022/07/13 12:22:39;;;;;;;2.45;1.50;;;;;;;;;;10589314;27;20534;-73
2022/07/13 12:27:43;;;;;;;4.93;1.60;;;;;;;;;;10591671;27;20043;-74
2022/07/13 12:32:56;;;;;;;4.18;1.67;;;;;;;;;;10588481;27;20039;-73
2022/07/13 12:38:01;;;;;;;1.70;1.60;;;;;;;;;;10587045;27;20166;-74
2022/07/13 12:43:05;;;;;;;1.70;1.40;;;;;;;;;;10580921;27;20143;-75
2022/07/13 12:48:12;;;;;;;2.30;1.27;;;;;;;;;;10593492;27;20368;-73
2022/07/13 12:53:15;;;;;;;1.83;1.23;;;;;;;;;;10587600;27;20130;-75
2022/07/13 12:58:19;;;;;;;1.75;1.40;;;;;;;;;;10588175;27;20080;-74
2022/07/13 13:03:22;;;;;;;3.35;1.58;;;;;;;;;;10586986;27;20102;-73
2022/07/13 13:08:25;;;;;;;6.38;1.40;;;;;;;;;;10588689;27;20433;-73
2022/07/13 13:13:29;;;;;;;3.35;1.50;;;;;;;;;;10590320;27;20467;-72
2022/07/13 13:18:31;;;;;;;18.95;2.15;;;;;;;;;;10591812;27;20035;-76
2022/07/13 13:23:34;;;;;;;12.18;1.67;;;;;;;;;;10564195;27;20093;-74
2022/07/13 13:33:56;;;;;;;5.82;2.10;;;;;;;;;;10559101;27;20139;-74
2022/07/13 13:39:18;;;;;;;6.38;1.40;;;;;;;;;;10563308;27;20062;-75
2022/07/13 13:44:25;;;;;;;2.03;1.30;;;;;;;;;;10568009;27;20411;-75
2022/07/13 13:49:29;;;;;;;1.52;1.27;;;;;;;;;;10562068;27;20032;-75
2022/07/13 13:54:31;;;;;;;1.80;1.10;;;;;;;;;;10560928;27;20110;-74
2022/07/13 13:59:35;;;;;;;3.95;1.20;;;;;;;;;;10560210;27;20035;-75
2022/07/13 14:04:38;;;;;;;2.58;1.30;;;;;;;;;;10549932;27;20123;-71
2022/07/13 14:09:41;;;;;;;2.58;1.40;;;;;;;;;;10544057;27;20058;-72
2022/07/13 14:14:45;;;;;;;1.20;1.10;;;;;;;;;;10548047;27;20095;-68
2022/07/13 14:19:53;;;;;;;1.88;1.30;;;;;;;;;;10561897;27;20034;-69
2022/07/13 14:25:15;;;;;;;1.50;1.10;;;;;;;;;;10557176;27;20060;-72
2022/07/13 14:30:19;;;;;;;2.13;1.20;;;;;;;;;;10545021;27;20070;-71
2022/07/13 14:35:23;;;;;;;5.38;1.20;;;;;;;;;;10553379;28;20044;-71
2022/07/13 14:40:25;;;;;;;5.45;1.40;;;;;;;;;;10556763;27;20032;-72
2022/07/13 14:45:29;;;;;;;1.65;1.55;;;;;;;;;;10543932;27;20064;-72
2022/07/13 14:50:33;;;;;;;1.50;1.02;;;;;;;;;;10553934;27;20032;-70
2022/07/13 14:55:56;;;;;;;1.23;1.15;;;;;;;;;;10543755;28;20118;-69
2022/07/13 15:01:00;;;;;;;1.40;1.30;;;;;;;;;;10548781;27;20095;-71
2022/07/13 15:06:04;;;;;;;3.80;1.80;;;;;;;;;;10553798;27;20032;-72
2022/07/13 15:11:10;;;;;;;3.05;1.42;;;;;;;;;;10547022;27;20050;-70
2022/07/13 15:16:16;;;;;;;1.77;1.42;;;;;;;;;;10521069;28;20032;-72
2022/07/13 15:21:19;;;;;;;2.08;1.10;;;;;;;;;;10556224;28;20032;-73
2022/07/13 15:26:22;;;;;;;2.92;1.33;;;;;;;;;;10557548;28;20036;-71
2022/07/13 15:31:27;;;;;;;2.35;1.10;;;;;;;;;;10552134;28;20023;-72
2022/07/13 15:36:30;;;;;;;1.70;0.98;;;;;;;;;;10561805;27;20055;-71
2022/07/13 15:41:32;;;;;;;1.98;1.20;;;;;;;;;;10550956;28;20036;-69
2022/07/13 15:46:37;;;;;;;3.17;1.13;;;;;;;;;;10557452;27;20142;-72
2022/07/13 15:51:40;;;;;;;1.00;0.98;;;;;;;;;;10547257;27;20043;-72
2022/07/13 15:56:42;;;;;;;5.47;1.23;;;;;;;;;;10555414;28;20040;-72
2022/07/13 16:01:46;;;;;;;3.67;1.00;;;;;;;;;;10543922;28;20144;-70
2022/07/13 16:06:49;;;;;;;3.15;1.00;;;;;;;;;;10552849;28;20836;-71
2022/07/13 16:11:53;;;;;;;2.97;1.77;;;;;;;;;;10554767;28;20035;-71
2022/07/13 16:16:57;;;;;;;1.75;1.00;;;;;;;;;;10559576;28;20123;-70
2022/07/13 16:22:01;;;;;;;4.30;1.10;;;;;;;;;;10549470;28;20062;-71
2022/07/13 16:27:04;;;;;;;4.90;2.08;;;;;;;;;;10558920;28;20043;-72
2022/07/13 16:32:13;;;;;;;2.08;1.20;;;;;;;;;;10549252;28;20138;-71
2022/07/13 16:37:16;;;;;;;2.10;0.80;;;;;;;;;;10547736;28;20530;-71
2022/07/13 16:42:19;;;;;;;1.67;0.98;;;;;;;;;;10558551;28;20081;-71
2022/07/13 16:47:23;;;;;;;3.28;1.40;;;;;;;;;;10549272;28;20293;-71
2022/07/13 16:52:27;;;;;;;1.25;1.00;;;;;;;;;;10554481;28;20043;-71
2022/07/13 16:57:30;;;;;;;2.45;1.00;;;;;;;;;;10562414;27;20051;-71
2022/07/13 17:02:36;;;;;;;0.82;0.82;;;;;;;;;;10564611;27;20036;-73
2022/07/13 17:07:39;;;;;;;3.45;1.13;;;;;;;;;;10566476;27;20109;-71
2022/07/13 17:12:41;;;;;;;4.50;1.10;;;;;;;;;;10562838;28;20039;-72
2022/07/13 17:17:51;;;;;;;5.80;1.00;;;;;;;;;;10564108;27;20127;-71
2022/07/13 17:22:55;;;;;;;1.73;1.20;;;;;;;;;;10558745;28;20039;-70
2022/07/13 17:27:57;;;;;;;1.98;1.10;;;;;;;;;;10556946;27;20084;-73
2022/07/13 17:33:03;;;;;;;3.05;1.30;;;;;;;;;;10558024;28;20055;-71
2022/07/13 17:38:05;;;;;;;1.50;1.15;;;;;;;;;;10564338;27;20418;-72
2022/07/13 17:43:08;;;;;;;2.42;1.08;;;;;;;;;;10562039;27;20044;-71
2022/07/13 17:48:12;;;;;;;1.73;1.15;;;;;;;;;;10573357;27;20455;-72
2022/07/13 17:53:15;;;;;;;2.67;1.10;;;;;;;;;;10557825;28;20126;-71
2022/07/13 17:58:17;;;;;;;1.45;1.20;;;;;;;;;;10549923;28;20047;-71
2022/07/13 18:03:22;;;;;;;2.60;1.40;;;;;;;;;;10550125;28;20062;-73
2022/07/13 18:08:24;;;;;;;1.40;1.10;;;;;;;;;;10557781;28;20088;-71
2022/07/13 18:13:28;;;;;;;1.85;1.38;;;;;;;;;;10548621;27;20109;-71
2022/07/13 18:18:32;;;;;;;1.23;1.10;;;;;;;;;;10554167;27;20081;-71
2022/07/13 18:23:52;;;;;;;3.30;1.40;;;;;;;;;;10554418;27;20635;-71
2022/07/13 18:28:55;;;;;;;4.55;1.52;;;;;;;;;;10554009;28;20488;-72
2022/07/13 18:33:59;;;;;;;4.03;1.48;;;;;;;;;;10550291;28;20067;-72
2022/07/13 18:39:02;;;;;;;5.45;1.48;;;;;;;;;;10547211;27;20047;-71
2022/07/13 18:44:05;;;;;;;5.03;1.80;;;;;;;;;;10551981;27;20457;-71
2022/07/13 18:49:09;;;;;;;3.25;1.60;;;;;;;;;;10551496;27;21354;-71
2022/07/13 18:54:13;;;;;;;6.68;2.10;;;;;;;;;;10549630;27;20112;-74
2022/07/13 18:59:17;;;;;;;5.97;1.90;;;;;;;;;;10558793;27;20036;-75
2022/07/13 19:04:21;;;;;;;4.05;1.90;;;;;;;;;;10561121;27;20372;-71
2022/07/13 19:09:25;;;;;;;10.93;2.20;;;;;;;;;;10564117;27;20078;-70
2022/07/13 19:14:28;;;;;;;5.97;2.15;;;;;;;;;;10555161;28;20035;-67
2022/07/13 19:19:33;;;;;;;8.80;4.30;;;;;;;;;;10555362;27;20052;-68
2022/07/13 19:30:03;;;;;;;2.13;1.40;;;;;;;;;;10549229;28;20055;-67
2022/07/13 19:35:08;;;;;;;9.50;2.80;;;;;;;;;;10550052;27;20159;-68
2022/07/13 19:40:11;;;;;;;5.38;2.25;;;;;;;;;;10547623;27;20619;-69
2022/07/13 19:45:18;;;;;;;4.22;2.17;;;;;;;;;;10555809;27;20055;-70
2022/07/13 19:50:22;;;;;;;5.50;2.65;;;;;;;;;;10550346;28;20040;-71
2022/07/13 19:55:25;;;;;;;9.52;2.70;;;;;;;;;;10554827;27;20093;-70
2022/07/13 20:00:28;;;;;;;4.55;1.92;;;;;;;;;;10551100;27;20093;-71
2022/07/13 20:05:32;;;;;;;3.30;1.73;;;;;;;;;;10555101;28;20039;-71
2022/07/13 20:10:35;;;;;;;3.17;1.80;;;;;;;;;;10552554;28;20063;-70
2022/07/13 20:15:38;;;;;;;;;;;;;;;;;;10559760;27;20066;-71
2022/07/13 20:20:43;;;;;;;4.67;2.23;;;;;;;;;;10554826;28;19981;-70
2022/07/13 20:25:45;;;;;;;3.80;1.90;;;;;;;;;;10551355;28;20686;-71
2022/07/13 20:30:49;;;;;;;3.63;2.05;;;;;;;;;;10551360;28;20067;-71
2022/07/13 20:35:53;;;;;;;4.85;2.45;;;;;;;;;;10558622;27;20042;-71
2022/07/13 20:40:58;;;;;;;7.47;2.55;;;;;;;;;;10557506;27;20082;-71
2022/07/13 20:46:02;;;;;;;2.83;1.88;;;;;;;;;;10568657;27;20153;-71
2022/07/13 20:51:07;;;;;;;4.72;2.30;;;;;;;;;;10563606;27;20510;-72
2022/07/13 20:56:11;;;;;;;3.60;2.20;;;;;;;;;;10558266;27;20377;-72
2022/07/13 21:01:14;;;;;;;5.78;2.53;;;;;;;;;;10555751;27;20122;-72
2022/07/13 21:06:18;;;;;;;6.10;2.80;;;;;;;;;;10557983;27;20495;-70
2022/07/13 21:11:22;;;;;;;4.40;2.28;;;;;;;;;;10557954;27;20034;-71
2022/07/13 21:16:24;;;;;;;7.55;2.65;;;;;;;;;;10559941;27;20043;-71
2022/07/13 21:21:28;;;;;;;5.45;2.95;;;;;;;;;;10562491;27;20394;-71
2022/07/13 21:26:31;;;;;;;5.28;2.70;;;;;;;;;;10563134;27;20040;-71
2022/07/13 21:31:34;;;;;;;7.57;3.63;;;;;;;;;;10562478;27;20044;-71
2022/07/13 21:36:38;;;;;;;5.60;2.80;;;;;;;;;;10563586;27;20069;-71
2022/07/13 21:41:41;;;;;;;6.20;2.42;;;;;;;;;;10559816;27;20492;-73
2022/07/13 21:46:43;;;;;;;6.45;3.60;;;;;;;;;;10566671;28;20039;-72
2022/07/13 21:51:49;;;;;;;6.35;3.30;;;;;;;;;;10568885;27;20054;-72
2022/07/13 21:56:52;;;;;;;6.85;2.53;;;;;;;;;;10558963;27;20084;-72
2022/07/13 22:01:55;;;;;;;4.88;2.70;;;;;;;;;;10558216;27;20042;-73
2022/07/13 22:07:19;;;;;;;2.85;2.17;;;;;;;;;;10560484;27;20075;-72
2022/07/13 22:12:41;;;;;;;4.20;2.20;;;;;;;;;;10555009;28;20243;-72
2022/07/13 22:18:02;;;;;;;3.88;2.40;;;;;;;;;;10560085;27;20043;-72
2022/07/13 22:23:26;;;;;;;4.82;2.42;;;;;;;;;;10556860;27;20046;-73
2022/07/13 22:28:51;;;;;;;6.55;2.42;;;;;;;;;;10559034;27;20103;-73
2022/07/13 22:34:13;;;;;;;5.18;2.50;;;;;;;;;;10555466;28;20028;-72
2022/07/13 22:39:34;;;;;;;7.28;2.83;;;;;;;;;;10549160;27;20130;-73
2022/07/13 22:44:56;;;;;;;4.80;2.47;;;;;;;;;;10554256;28;20036;-73
2022/07/13 22:50:19;;;;;;;5.00;2.10;;;;;;;;;;10552531;27;20115;-73
2022/07/13 22:55:40;;;;;;;4.10;2.30;;;;;;;;;;10550315;27;20035;-73
2022/07/13 23:01:02;;;;;;;4.95;2.55;;;;;;;;;;10556226;28;20036;-72
2022/07/13 23:06:24;;;;;;;4.75;2.30;;;;;;;;;;10553646;27;20352;-73
2022/07/13 23:11:46;;;;;;;2.35;1.60;;;;;;;;;;10554864;27;20039;-73
2022/07/13 23:17:08;;;;;;;2.08;1.60;;;;;;;;;;10555451;27;20461;-72
2022/07/13 23:22:30;;;;;;;2.33;1.40;;;;;;;;;;10553924;28;20716;-73
2022/07/13 23:27:53;;;;;;;1.77;1.38;;;;;;;;;;10552805;28;20154;-73
2022/07/13 23:32:58;;;;;;;1.75;1.30;;;;;;;;;;10554005;28;20070;-72
2022/07/13 23:38:01;;;;;;;2.40;1.58;;;;;;;;;;10549909;27;20064;-72
2022/07/13 23:43:03;;;;;;;3.75;1.50;;;;;;;;;;10554376;28;20023;-73
2022/07/13 23:48:08;;;;;;;2.72;1.60;;;;;;;;;;10555205;28;20096;-73
2022/07/13 23:53:11;;;;;;;1.85;1.60;;;;;;;;;;10567208;27;20070;-73
2022/07/13 23:58:14;;;;;;;;;;;;;;;;;;10555027;28;20135;-73
